SDM6964 LTFM-ULLI
Flight info
| Callsign | SDM6964 |
|---|---|
| Flight time | N/A |
| Altitude | 27000 |
| Route | OSMEV T641 ABSAX/N0454F350 UN743 ODIRA/K0845F350 G487 ERSAR DCT BEMES DCT VULFI DCT TUVGI/K0848F360 DCT EVZUN DCT ZIZAR DCT VAZLU DCT UZZID DCT NOKLI/K0845F350 N72 WGD G481 OBABI/K0839F370 T619 LUGIL/K0841F360 T619 UMRAL/K0837F370 P163 LADIM/K0841F360 P163 GOLRI L736 OLOPI N50 NUDKO T561 ODATI T875 GENPA |
| Aircraft | A320/M-SDE2E3FGHIRWXY/LB1 |
Departure
| Time | 2026-05-08 04:27 |
|---|---|
| Airport | İstanbul Airport (LTFM) |
Arrival
| Time | N/A |
|---|---|
| Airport | Pulkovo Airport (ULLI) |
| Time | Latitude | Longitude | Altitude | Speed | Heading |
|---|---|---|---|---|---|
| 2026-05-07 19:24 | 41.25392 | 28.75229 | 333 ft | 0 kts | 91° |
| 2026-05-08 04:07 | 41.25392 | 28.75228 | 333 ft | 0 kts | 91° |
| 2026-05-08 04:07 | 41.25392 | 28.75219 | 333 ft | 2 kts | 91° |
| 2026-05-08 04:07 | 41.25392 | 28.75199 | 333 ft | 2 kts | 91° |
| 2026-05-08 04:08 | 41.25393 | 28.75180 | 333 ft | 1 kts | 91° |
| 2026-05-08 04:08 | 41.25394 | 28.75166 | 333 ft | 2 kts | 114° |
| 2026-05-08 04:08 | 41.25399 | 28.75149 | 333 ft | 0 kts | 105° |
| 2026-05-08 04:08 | 41.25401 | 28.75131 | 333 ft | 2 kts | 86° |
| 2026-05-08 04:09 | 41.25398 | 28.75112 | 333 ft | 2 kts | 66° |
| 2026-05-08 04:09 | 41.25390 | 28.75095 | 333 ft | 2 kts | 45° |
| 2026-05-08 04:09 | 41.25378 | 28.75083 | 333 ft | 2 kts | 24° |
| 2026-05-08 04:09 | 41.25364 | 28.75078 | 333 ft | 2 kts | 3° |
| 2026-05-08 04:10 | 41.25351 | 28.75078 | 333 ft | 1 kts | 0° |
| 2026-05-08 04:10 | 41.25341 | 28.75079 | 333 ft | 1 kts | 355° |
| 2026-05-08 04:10 | 41.25337 | 28.75079 | 333 ft | 0 kts | 358° |
| 2026-05-08 04:15 | 41.25338 | 28.75079 | 333 ft | 0 kts | 358° |
| 2026-05-08 04:15 | 41.25345 | 28.75079 | 333 ft | 1 kts | 358° |
| 2026-05-08 04:16 | 41.25371 | 28.75078 | 333 ft | 5 kts | 359° |
| 2026-05-08 04:16 | 41.25419 | 28.75077 | 333 ft | 7 kts | 359° |
| 2026-05-08 04:16 | 41.25478 | 28.75075 | 333 ft | 9 kts | 359° |
| 2026-05-08 04:16 | 41.25539 | 28.75074 | 333 ft | 8 kts | 359° |
| 2026-05-08 04:17 | 41.25593 | 28.75074 | 333 ft | 7 kts | 6° |
| 2026-05-08 04:17 | 41.25631 | 28.75118 | 333 ft | 8 kts | 77° |
| 2026-05-08 04:17 | 41.25634 | 28.75201 | 333 ft | 9 kts | 89° |
| 2026-05-08 04:17 | 41.25635 | 28.75292 | 333 ft | 10 kts | 88° |
| 2026-05-08 04:18 | 41.25638 | 28.75389 | 333 ft | 10 kts | 88° |
| 2026-05-08 04:18 | 41.25673 | 28.75464 | 333 ft | 10 kts | 16° |
| 2026-05-08 04:18 | 41.25752 | 28.75468 | 333 ft | 11 kts | 358° |
| 2026-05-08 04:18 | 41.25838 | 28.75461 | 333 ft | 12 kts | 356° |
| 2026-05-08 04:19 | 41.25928 | 28.75455 | 333 ft | 13 kts | 357° |
| 2026-05-08 04:19 | 41.26025 | 28.75451 | 333 ft | 14 kts | 358° |
| 2026-05-08 04:19 | 41.26123 | 28.75444 | 333 ft | 14 kts | 357° |
| 2026-05-08 04:19 | 41.26228 | 28.75434 | 333 ft | 15 kts | 355° |
| 2026-05-08 04:20 | 41.26336 | 28.75427 | 333 ft | 15 kts | 359° |
| 2026-05-08 04:20 | 41.26447 | 28.75424 | 333 ft | 16 kts | 359° |
| 2026-05-08 04:20 | 41.26560 | 28.75420 | 333 ft | 16 kts | 358° |
| 2026-05-08 04:20 | 41.26675 | 28.75415 | 333 ft | 16 kts | 358° |
| 2026-05-08 04:21 | 41.26792 | 28.75410 | 333 ft | 17 kts | 358° |
| 2026-05-08 04:21 | 41.26913 | 28.75405 | 333 ft | 17 kts | 359° |
| 2026-05-08 04:21 | 41.27035 | 28.75400 | 333 ft | 17 kts | 358° |
| 2026-05-08 04:21 | 41.27159 | 28.75398 | 333 ft | 17 kts | 0° |
| 2026-05-08 04:22 | 41.27284 | 28.75397 | 333 ft | 18 kts | 359° |
| 2026-05-08 04:22 | 41.27410 | 28.75395 | 333 ft | 18 kts | 0° |
| 2026-05-08 04:22 | 41.27537 | 28.75394 | 333 ft | 18 kts | 359° |
| 2026-05-08 04:22 | 41.27665 | 28.75392 | 333 ft | 18 kts | 359° |
| 2026-05-08 04:23 | 41.27794 | 28.75389 | 333 ft | 18 kts | 0° |
| 2026-05-08 04:23 | 41.27924 | 28.75389 | 333 ft | 18 kts | 360° |
| 2026-05-08 04:23 | 41.28054 | 28.75386 | 333 ft | 18 kts | 358° |
| 2026-05-08 04:23 | 41.28186 | 28.75383 | 333 ft | 18 kts | 360° |
| 2026-05-08 04:24 | 41.28318 | 28.75380 | 333 ft | 18 kts | 359° |
| 2026-05-08 04:24 | 41.28448 | 28.75380 | 333 ft | 19 kts | 0° |
| 2026-05-08 04:24 | 41.28576 | 28.75381 | 333 ft | 17 kts | 360° |
| 2026-05-08 04:24 | 41.28677 | 28.75380 | 333 ft | 13 kts | 360° |
| 2026-05-08 04:25 | 41.28749 | 28.75379 | 333 ft | 9 kts | 0° |
| 2026-05-08 04:25 | 41.28801 | 28.75423 | 333 ft | 9 kts | 76° |
| 2026-05-08 04:25 | 41.28803 | 28.75514 | 333 ft | 10 kts | 90° |
| 2026-05-08 04:25 | 41.28799 | 28.75595 | 333 ft | 6 kts | 117° |
| 2026-05-08 04:26 | 41.28755 | 28.75615 | 333 ft | 8 kts | 179° |
| 2026-05-08 04:26 | 41.28653 | 28.75616 | 333 ft | 33 kts | 179° |
| 2026-05-08 04:26 | 41.28184 | 28.75626 | 333 ft | 98 kts | 178° |
| 2026-05-08 04:26 | 41.27311 | 28.75643 | 333 ft | 151 kts | 179° |
| 2026-05-08 04:27 | 41.26162 | 28.75686 | 613 ft | 169 kts | 180° |
| 2026-05-08 04:27 | 41.24979 | 28.75762 | 1130 ft | 175 kts | 179° |
| 2026-05-08 04:27 | 41.23767 | 28.75875 | 1748 ft | 179 kts | 179° |
| 2026-05-08 04:27 | 41.22528 | 28.76015 | 2373 ft | 178 kts | 176° |
| 2026-05-08 04:28 | 41.21345 | 28.76539 | 2927 ft | 183 kts | 150° |
| 2026-05-08 04:28 | 41.20455 | 28.77754 | 3441 ft | 190 kts | 123° |
| 2026-05-08 04:28 | 41.20057 | 28.79421 | 3953 ft | 195 kts | 95° |
| 2026-05-08 04:28 | 41.20225 | 28.81207 | 4384 ft | 203 kts | 74° |
| 2026-05-08 04:29 | 41.20733 | 28.83007 | 4736 ft | 215 kts | 65° |
| 2026-05-08 04:29 | 41.21400 | 28.84855 | 5109 ft | 228 kts | 63° |
| 2026-05-08 04:29 | 41.22101 | 28.86799 | 5424 ft | 246 kts | 63° |
| 2026-05-08 04:29 | 41.22907 | 28.88915 | 5702 ft | 267 kts | 62° |
| 2026-05-08 04:30 | 41.23775 | 28.91180 | 6126 ft | 283 kts | 62° |
| 2026-05-08 04:30 | 41.24725 | 28.93535 | 6681 ft | 293 kts | 60° |
| 2026-05-08 04:30 | 41.25690 | 28.95893 | 7390 ft | 297 kts | 60° |
| 2026-05-08 04:30 | 41.26620 | 28.98336 | 8245 ft | 296 kts | 67° |
| 2026-05-08 04:31 | 41.27016 | 29.01004 | 9054 ft | 298 kts | 89° |
| 2026-05-08 04:31 | 41.27079 | 29.03749 | 9799 ft | 300 kts | 78° |
| 2026-05-08 04:31 | 41.27792 | 29.06286 | 10493 ft | 300 kts | 62° |
| 2026-05-08 04:31 | 41.28783 | 29.08791 | 10921 ft | 314 kts | 60° |
| 2026-05-08 04:32 | 41.29837 | 29.11402 | 11213 ft | 331 kts | 60° |
| 2026-05-08 04:32 | 41.30942 | 29.14187 | 11525 ft | 347 kts | 61° |
| 2026-05-08 04:32 | 41.32066 | 29.17082 | 11796 ft | 362 kts | 61° |
| 2026-05-08 04:32 | 41.33239 | 29.20134 | 12118 ft | 375 kts | 62° |
| 2026-05-08 04:33 | 41.34262 | 29.22819 | 12568 ft | 379 kts | 62° |
| 2026-05-08 04:33 | 41.35448 | 29.25948 | 13202 ft | 381 kts | 62° |
| 2026-05-08 04:33 | 41.36636 | 29.29091 | 13785 ft | 384 kts | 62° |
| 2026-05-08 04:33 | 41.37836 | 29.32270 | 14358 ft | 386 kts | 62° |
| 2026-05-08 04:34 | 41.39043 | 29.35477 | 14891 ft | 390 kts | 62° |
| 2026-05-08 04:34 | 41.40252 | 29.38691 | 15396 ft | 393 kts | 62° |
| 2026-05-08 04:34 | 41.41476 | 29.41951 | 15910 ft | 396 kts | 62° |
| 2026-05-08 04:34 | 41.42721 | 29.45269 | 16429 ft | 399 kts | 62° |
| 2026-05-08 04:35 | 41.43948 | 29.48544 | 16894 ft | 402 kts | 62° |
| 2026-05-08 04:35 | 41.45200 | 29.51888 | 17366 ft | 404 kts | 62° |
| 2026-05-08 04:35 | 41.46453 | 29.55239 | 17835 ft | 407 kts | 61° |
| 2026-05-08 04:35 | 41.47721 | 29.58636 | 18277 ft | 410 kts | 61° |
| 2026-05-08 04:36 | 41.48995 | 29.62050 | 18721 ft | 413 kts | 61° |
| 2026-05-08 04:36 | 41.50261 | 29.65442 | 19147 ft | 415 kts | 62° |
| 2026-05-08 04:36 | 41.51548 | 29.68901 | 19557 ft | 418 kts | 62° |
| 2026-05-08 04:36 | 41.52845 | 29.72389 | 19963 ft | 421 kts | 62° |
| 2026-05-08 04:37 | 41.54139 | 29.75874 | 20367 ft | 423 kts | 62° |
| 2026-05-08 04:37 | 41.55454 | 29.79422 | 20747 ft | 426 kts | 62° |
| 2026-05-08 04:37 | 41.56770 | 29.82978 | 21138 ft | 428 kts | 62° |
| 2026-05-08 04:37 | 41.58079 | 29.86516 | 21502 ft | 431 kts | 62° |
| 2026-05-08 04:38 | 41.59411 | 29.90121 | 21845 ft | 434 kts | 62° |
| 2026-05-08 04:38 | 41.60749 | 29.93746 | 22191 ft | 436 kts | 62° |
| 2026-05-08 04:38 | 41.62075 | 29.97345 | 22530 ft | 439 kts | 62° |
| 2026-05-08 04:38 | 41.63438 | 30.01045 | 22868 ft | 441 kts | 62° |
| 2026-05-08 04:39 | 41.64788 | 30.04720 | 23200 ft | 443 kts | 62° |
| 2026-05-08 04:39 | 41.66142 | 30.08413 | 23541 ft | 445 kts | 62° |
| 2026-05-08 04:39 | 41.67504 | 30.12126 | 23881 ft | 447 kts | 62° |
| 2026-05-08 04:39 | 41.68867 | 30.15852 | 24214 ft | 449 kts | 62° |
| 2026-05-08 04:40 | 41.70244 | 30.19621 | 24536 ft | 451 kts | 62° |
| 2026-05-08 04:40 | 41.71605 | 30.23350 | 24841 ft | 453 kts | 62° |
| 2026-05-08 04:40 | 41.72997 | 30.27167 | 25163 ft | 454 kts | 62° |
| 2026-05-08 04:40 | 41.74382 | 30.30972 | 25466 ft | 456 kts | 61° |
| 2026-05-08 04:41 | 41.75755 | 30.34743 | 25747 ft | 458 kts | 62° |
| 2026-05-08 04:41 | 41.77156 | 30.38597 | 26031 ft | 460 kts | 61° |
| 2026-05-08 04:41 | 41.78547 | 30.42431 | 26299 ft | 462 kts | 61° |
| 2026-05-08 04:41 | 41.79953 | 30.46312 | 26562 ft | 464 kts | 61° |
| 2026-05-08 04:42 | 41.81355 | 30.50187 | 26822 ft | 465 kts | 61° |
| 2026-05-08 04:42 | 41.82768 | 30.54099 | 27070 ft | 467 kts | 61° |
| 2026-05-08 04:42 | 41.84188 | 30.58037 | 27296 ft | 469 kts | 61° |
| 2026-05-08 04:42 | 41.85609 | 30.61982 | 27534 ft | 470 kts | 61° |
| 2026-05-08 04:43 | 41.87032 | 30.65938 | 27772 ft | 471 kts | 62° |
| 2026-05-08 04:43 | 41.88473 | 30.69949 | 28050 ft | 471 kts | 62° |
| 2026-05-08 04:43 | 41.89871 | 30.73847 | 28372 ft | 470 kts | 62° |
| 2026-05-08 04:43 | 41.91288 | 30.77803 | 28683 ft | 469 kts | 62° |
| 2026-05-08 04:44 | 41.92709 | 30.81773 | 28989 ft | 468 kts | 62° |
| 2026-05-08 04:44 | 41.94100 | 30.85668 | 29283 ft | 467 kts | 62° |
| 2026-05-08 04:44 | 41.95503 | 30.89600 | 29565 ft | 467 kts | 62° |
| 2026-05-08 04:44 | 41.96898 | 30.93515 | 29851 ft | 466 kts | 62° |
| 2026-05-08 04:45 | 41.98286 | 30.97439 | 30148 ft | 466 kts | 63° |
| 2026-05-08 04:45 | 41.99571 | 31.01454 | 30439 ft | 466 kts | 66° |
| 2026-05-08 04:45 | 42.00683 | 31.05542 | 30723 ft | 466 kts | 69° |
| 2026-05-08 04:45 | 42.01636 | 31.09713 | 31012 ft | 466 kts | 71° |
| 2026-05-08 04:46 | 42.02529 | 31.13879 | 31291 ft | 466 kts | 71° |
| 2026-05-08 04:46 | 42.03418 | 31.18082 | 31551 ft | 465 kts | 71° |
| 2026-05-08 04:46 | 42.04297 | 31.22251 | 31777 ft | 466 kts | 71° |
| 2026-05-08 04:46 | 42.05183 | 31.26450 | 32013 ft | 466 kts | 71° |
| 2026-05-08 04:47 | 42.06074 | 31.30671 | 32262 ft | 465 kts | 71° |
| 2026-05-08 04:47 | 42.06980 | 31.34969 | 32516 ft | 464 kts | 71° |
| 2026-05-08 04:47 | 42.07864 | 31.39165 | 32763 ft | 464 kts | 71° |
| 2026-05-08 04:47 | 42.08747 | 31.43360 | 32997 ft | 463 kts | 71° |
| 2026-05-08 04:48 | 42.09639 | 31.47607 | 33228 ft | 463 kts | 70° |
| 2026-05-08 04:48 | 42.10598 | 31.52182 | 33451 ft | 463 kts | 70° |
| 2026-05-08 04:48 | 42.11628 | 31.57104 | 33662 ft | 464 kts | 70° |
| 2026-05-08 04:48 | 42.12515 | 31.61347 | 33823 ft | 465 kts | 70° |
| 2026-05-08 04:49 | 42.13388 | 31.65540 | 33987 ft | 465 kts | 71° |
| 2026-05-08 04:49 | 42.14279 | 31.69827 | 34129 ft | 466 kts | 71° |
| 2026-05-08 04:49 | 42.15155 | 31.74046 | 34264 ft | 467 kts | 71° |
| 2026-05-08 04:49 | 42.16002 | 31.78142 | 34409 ft | 468 kts | 71° |
| 2026-05-08 04:50 | 42.16877 | 31.82381 | 34547 ft | 468 kts | 71° |
| 2026-05-08 04:50 | 42.17741 | 31.86576 | 34653 ft | 468 kts | 70° |
| 2026-05-08 04:50 | 42.18619 | 31.90841 | 34762 ft | 469 kts | 71° |
| 2026-05-08 04:50 | 42.19491 | 31.95083 | 34860 ft | 469 kts | 70° |
| 2026-05-08 04:51 | 42.20383 | 31.99435 | 34966 ft | 470 kts | 70° |
| 2026-05-08 04:51 | 42.21272 | 32.03775 | 35063 ft | 470 kts | 71° |
| 2026-05-08 04:51 | 42.23001 | 32.12260 | 35121 ft | 471 kts | 71° |
| 2026-05-08 04:52 | 42.24770 | 32.20909 | 35123 ft | 470 kts | 69° |
| 2026-05-08 04:52 | 42.26722 | 32.29453 | 35124 ft | 469 kts | 68° |
| 2026-05-08 04:53 | 42.28657 | 32.37838 | 35125 ft | 468 kts | 68° |
| 2026-05-08 04:53 | 42.30568 | 32.46204 | 35125 ft | 468 kts | 69° |
| 2026-05-08 04:54 | 42.31945 | 32.54834 | 35128 ft | 473 kts | 78° |
| 2026-05-08 04:54 | 42.32348 | 32.63738 | 35127 ft | 478 kts | 87° |
| 2026-05-08 04:55 | 42.31754 | 32.72652 | 35128 ft | 482 kts | 95° |
| 2026-05-08 04:55 | 42.30715 | 32.81596 | 35126 ft | 481 kts | 96° |
| 2026-05-08 04:56 | 42.29672 | 32.90511 | 35126 ft | 481 kts | 95° |
| 2026-05-08 04:56 | 42.28643 | 32.99400 | 35127 ft | 481 kts | 95° |
| 2026-05-08 04:57 | 42.27604 | 33.08378 | 35122 ft | 481 kts | 95° |
| 2026-05-08 04:57 | 42.26565 | 33.17300 | 35124 ft | 480 kts | 95° |
| 2026-05-08 04:58 | 42.25519 | 33.26221 | 35120 ft | 479 kts | 95° |
| 2026-05-08 04:58 | 42.24475 | 33.35079 | 35127 ft | 480 kts | 95° |
| 2026-05-08 04:59 | 42.23415 | 33.44006 | 35128 ft | 480 kts | 95° |
| 2026-05-08 04:59 | 42.22352 | 33.52896 | 35131 ft | 479 kts | 95° |
| 2026-05-08 05:00 | 42.21279 | 33.61805 | 35128 ft | 479 kts | 95° |
| 2026-05-08 05:00 | 42.20225 | 33.70810 | 35129 ft | 478 kts | 93° |
| 2026-05-08 05:01 | 42.19830 | 33.79666 | 35135 ft | 473 kts | 85° |
| 2026-05-08 05:01 | 42.20340 | 33.88531 | 35137 ft | 467 kts | 77° |
| 2026-05-08 05:02 | 42.21668 | 33.97077 | 35142 ft | 463 kts | 71° |
| 2026-05-08 05:02 | 42.23250 | 34.05598 | 35143 ft | 463 kts | 71° |
| 2026-05-08 05:03 | 42.24800 | 34.14052 | 35147 ft | 464 kts | 72° |
| 2026-05-08 05:03 | 42.26333 | 34.22539 | 35146 ft | 463 kts | 72° |
| 2026-05-08 05:04 | 42.27864 | 34.31079 | 35146 ft | 462 kts | 72° |
| 2026-05-08 05:04 | 42.29377 | 34.39542 | 35151 ft | 462 kts | 72° |
| 2026-05-08 05:05 | 42.30900 | 34.48169 | 35154 ft | 462 kts | 72° |
| 2026-05-08 05:05 | 42.32375 | 34.56581 | 35154 ft | 462 kts | 72° |
| 2026-05-08 05:06 | 42.33866 | 34.65123 | 35165 ft | 461 kts | 73° |
| 2026-05-08 05:06 | 42.35348 | 34.73647 | 35159 ft | 461 kts | 73° |
| 2026-05-08 05:07 | 42.36815 | 34.82124 | 35167 ft | 461 kts | 73° |
| 2026-05-08 05:07 | 42.38262 | 34.90529 | 35166 ft | 460 kts | 73° |
| 2026-05-08 05:08 | 42.39707 | 34.98945 | 35171 ft | 459 kts | 73° |
| 2026-05-08 05:08 | 42.41164 | 35.07491 | 35185 ft | 458 kts | 73° |
| 2026-05-08 05:09 | 42.42600 | 35.15934 | 35186 ft | 459 kts | 73° |
| 2026-05-08 05:09 | 42.44020 | 35.24345 | 35182 ft | 458 kts | 73° |
| 2026-05-08 05:10 | 42.46146 | 35.36996 | 35185 ft | 458 kts | 73° |
| 2026-05-08 05:11 | 42.47561 | 35.45462 | 35187 ft | 457 kts | 73° |
| 2026-05-08 05:11 | 42.48949 | 35.53814 | 35186 ft | 457 kts | 73° |
| 2026-05-08 05:12 | 42.50339 | 35.62225 | 35182 ft | 457 kts | 73° |
| 2026-05-08 05:12 | 42.51735 | 35.70704 | 35181 ft | 456 kts | 75° |
| 2026-05-08 05:13 | 42.53111 | 35.79109 | 35177 ft | 457 kts | 75° |
| 2026-05-08 05:13 | 42.54485 | 35.87536 | 35181 ft | 457 kts | 75° |
| 2026-05-08 05:14 | 42.55840 | 35.95896 | 35182 ft | 457 kts | 75° |
| 2026-05-08 05:14 | 42.57196 | 36.04302 | 35187 ft | 456 kts | 75° |
| 2026-05-08 05:15 | 42.58555 | 36.12763 | 35191 ft | 455 kts | 75° |
| 2026-05-08 05:15 | 42.59894 | 36.21146 | 35194 ft | 455 kts | 75° |
| 2026-05-08 05:16 | 42.61220 | 36.29491 | 35191 ft | 454 kts | 75° |
| 2026-05-08 05:16 | 42.62544 | 36.37855 | 35194 ft | 453 kts | 75° |
| 2026-05-08 05:17 | 42.63854 | 36.46181 | 35191 ft | 452 kts | 75° |
| 2026-05-08 05:17 | 42.65164 | 36.54538 | 35193 ft | 452 kts | 75° |
| 2026-05-08 05:18 | 42.66463 | 36.62880 | 35195 ft | 452 kts | 75° |
| 2026-05-08 05:18 | 42.67545 | 36.69851 | 35200 ft | 452 kts | 76° |
| 2026-05-08 05:19 | 42.69046 | 36.79575 | 35204 ft | 451 kts | 76° |
| 2026-05-08 05:19 | 42.70393 | 36.87908 | 35197 ft | 449 kts | 73° |
| 2026-05-08 05:20 | 42.72278 | 36.95994 | 35199 ft | 447 kts | 67° |
| 2026-05-08 05:20 | 42.74644 | 37.03827 | 35202 ft | 446 kts | 65° |
| 2026-05-08 05:21 | 42.77054 | 37.11648 | 35201 ft | 446 kts | 65° |
| 2026-05-08 05:21 | 42.79441 | 37.19429 | 35203 ft | 446 kts | 65° |
| 2026-05-08 05:22 | 42.81832 | 37.27271 | 35201 ft | 446 kts | 65° |
| 2026-05-08 05:22 | 42.84209 | 37.35090 | 35203 ft | 446 kts | 65° |
| 2026-05-08 05:23 | 42.86621 | 37.43047 | 35201 ft | 446 kts | 65° |
| 2026-05-08 05:23 | 42.88976 | 37.50840 | 35203 ft | 446 kts | 65° |
| 2026-05-08 05:24 | 42.91326 | 37.58641 | 35203 ft | 445 kts | 65° |
| 2026-05-08 05:24 | 42.93671 | 37.66450 | 35205 ft | 445 kts | 66° |
| 2026-05-08 05:25 | 42.96007 | 37.74256 | 35204 ft | 446 kts | 65° |
| 2026-05-08 05:25 | 42.98342 | 37.82079 | 35205 ft | 446 kts | 65° |
| 2026-05-08 05:26 | 43.00667 | 37.89934 | 35206 ft | 446 kts | 66° |
| 2026-05-08 05:26 | 43.02967 | 37.97747 | 35203 ft | 445 kts | 66° |
| 2026-05-08 05:27 | 43.05258 | 38.05593 | 35209 ft | 445 kts | 66° |
| 2026-05-08 05:27 | 43.07539 | 38.13462 | 35207 ft | 445 kts | 66° |
| 2026-05-08 05:28 | 43.09815 | 38.21283 | 35210 ft | 445 kts | 65° |
| 2026-05-08 05:28 | 43.12157 | 38.29260 | 35209 ft | 445 kts | 65° |
| 2026-05-08 05:29 | 43.14446 | 38.37085 | 35206 ft | 445 kts | 65° |
| 2026-05-08 05:29 | 43.16739 | 38.44953 | 35208 ft | 444 kts | 65° |
| 2026-05-08 05:30 | 43.19005 | 38.52760 | 35208 ft | 444 kts | 65° |
| 2026-05-08 05:30 | 43.21271 | 38.60583 | 35207 ft | 444 kts | 65° |
| 2026-05-08 05:31 | 43.23539 | 38.68440 | 35200 ft | 444 kts | 66° |
| 2026-05-08 05:31 | 43.25824 | 38.76384 | 35208 ft | 443 kts | 66° |
| 2026-05-08 05:32 | 43.28057 | 38.84248 | 35205 ft | 443 kts | 66° |
| 2026-05-08 05:32 | 43.30238 | 38.92009 | 35207 ft | 443 kts | 66° |
| 2026-05-08 05:33 | 43.32455 | 38.99921 | 35209 ft | 443 kts | 66° |
| 2026-05-08 05:33 | 43.34676 | 39.07814 | 35211 ft | 443 kts | 65° |
| 2026-05-08 05:34 | 43.37195 | 39.15520 | 35201 ft | 441 kts | 63° |
| 2026-05-08 05:34 | 43.39780 | 39.23148 | 35197 ft | 440 kts | 62° |
| 2026-05-08 05:35 | 43.42347 | 39.30765 | 35199 ft | 440 kts | 62° |
| 2026-05-08 05:35 | 43.44905 | 39.38378 | 35199 ft | 441 kts | 62° |
| 2026-05-08 05:36 | 43.47466 | 39.46021 | 35204 ft | 441 kts | 62° |
| 2026-05-08 05:36 | 43.50026 | 39.53689 | 35211 ft | 441 kts | 62° |
| 2026-05-08 05:37 | 43.52555 | 39.61285 | 35198 ft | 441 kts | 62° |
| 2026-05-08 05:37 | 43.55114 | 39.68992 | 35206 ft | 441 kts | 63° |
| 2026-05-08 05:38 | 43.57618 | 39.76579 | 35206 ft | 441 kts | 63° |
| 2026-05-08 05:38 | 43.60128 | 39.84233 | 35208 ft | 440 kts | 63° |
| 2026-05-08 05:39 | 43.62636 | 39.91897 | 35202 ft | 441 kts | 63° |
| 2026-05-08 05:39 | 43.65159 | 39.99630 | 35212 ft | 441 kts | 63° |
| 2026-05-08 05:40 | 43.67650 | 40.07288 | 35220 ft | 441 kts | 63° |
| 2026-05-08 05:40 | 43.70160 | 40.15023 | 35226 ft | 441 kts | 63° |
| 2026-05-08 05:41 | 43.72657 | 40.22737 | 35216 ft | 441 kts | 63° |
| 2026-05-08 05:41 | 43.74739 | 40.29185 | 35202 ft | 441 kts | 63° |
| 2026-05-08 05:42 | 43.77639 | 40.38197 | 35197 ft | 441 kts | 63° |
| 2026-05-08 05:42 | 43.80121 | 40.45929 | 35189 ft | 441 kts | 63° |
| 2026-05-08 05:43 | 43.82603 | 40.53689 | 35198 ft | 441 kts | 63° |
| 2026-05-08 05:43 | 43.85070 | 40.61427 | 35204 ft | 441 kts | 63° |
| 2026-05-08 05:44 | 43.87529 | 40.69159 | 35196 ft | 441 kts | 63° |
| 2026-05-08 05:44 | 43.89979 | 40.76955 | 35200 ft | 441 kts | 64° |
| 2026-05-08 05:45 | 43.92405 | 40.84758 | 35211 ft | 442 kts | 64° |
| 2026-05-08 05:45 | 43.94832 | 40.92590 | 35215 ft | 442 kts | 64° |
| 2026-05-08 05:46 | 43.97258 | 41.00432 | 35206 ft | 442 kts | 64° |